Terminal Aerodrome Forecast
Issued by NWS

Home | Current Version | Previous Version | Text Only | Print | Product List | Glossary On
Versions: 1 2 3 4 5 6 7 8 9 10 11 12 13 14 15 16 17 18 19 20 21 22
000
FTUS43 KMPX 230600 CCA
TAFRNH
TAF COR
KRNH 230608Z 2306/2406 04003KT 6SM BR OVC007
     FM230900 06005KT 3SM BR OVC003
     FM231600 09008KT P6SM BKN015
     FM232000 10010KT P6SM SCT020 BKN100
     FM240200 12011KT 5SM BR BKN020=

USA.gov is the U.S. government's official web portal to all federal, state and local government web resources and services.